Thunder radar more information blitzortung!


Radar de pluja more information rain snow radar


Visita la nostra xarxa de llocs de meteo:

Template documentation
and downloads

And another site



Wind From: 11-12-2017 11:00 Until: 14:59 warning for: Wind Level: Yellow info button

Pagina Historial Weather Underground text

Diari Resum Juny 1, 2017 Unitats:  Imperial    Mètric   Tant
« Previous Dia
SegĂźent Dia »
Diari Setmana Mensual Anual Personalitzada
  Maxima: Minima: Media:
Temperatura: 84.9 °F 60.3 °F 75.4 °F
Punt de rosada: 55 °F 45.7 °F 50.2 °F
Humitat: 70 % 29 % 43 %
Wind Speed: 11.5 mph 0 mph 4 mph
RĂ fegues de vent: 11.5 mph - -
Vent:- - South
Pression baro: 30.1 in 30 in -
Precipitacions: 0 in    
Historical Graphs
 
 
Dades de taula per Juny 1, 2017
Temps Temperatura Punt de rosada Pression baro Vent Wind Speed RĂ fegues de vent Humitat Rainfall Rate (Hourly)
00:01 66 °F 50.7 °F 30.1 in Calm     58 % 0 in
00:05 61.7 °F 48.9 °F 30.1 in East 1 mph 2 mph 63 % 0 in
00:06 66 °F 50.7 °F 30.1 in Calm     58 % 0 in
00:15 61.5 °F 48.7 °F 30.1 in Calm   2 mph 63 % 0 in
00:25 61.2 °F 48.6 °F 30.1 in Calm   1 mph 63 % 0 in
00:35 60.8 °F 48 °F 30 in Calm   2 mph 63 % 0 in
00:45 60.8 °F 48 °F 30 in Calm     63 % 0 in
00:55 60.4 °F 47.8 °F 30.1 in Calm     63 % 0 in
01:05 60.4 °F 48.2 °F 30.1 in Calm     64 % 0 in
01:15 60.4 °F 48.2 °F 30.1 in Calm   1 mph 64 % 0 in
01:25 60.6 °F 47.8 °F 30.1 in NNE 1 mph 1 mph 63 % 0 in
01:35 61 °F 48.7 °F 30.1 in North 1 mph 1 mph 64 % 0 in
01:45 60.8 °F 48.6 °F 30.1 in Calm     64 % 0 in
01:55 60.4 °F 48.6 °F 30.1 in Calm     65 % 0 in
02:05 60.3 °F 48 °F 30.1 in NW 1 mph 1 mph 64 % 0 in
02:15 60.4 °F 48.2 °F 30.1 in Calm   1 mph 64 % 0 in
02:25 61.3 °F 48.6 °F 30.1 in WSW 1 mph 2 mph 63 % 0 in
02:35 62.8 °F 50 °F 30.1 in Calm   1 mph 63 % 0 in
02:45 63.7 °F 50.4 °F 30.1 in Calm   2 mph 62 % 0 in
02:55 64.4 °F 50.2 °F 30.1 in SE 1 mph 2 mph 60 % 0 in
03:05 64.6 °F 50.4 °F 30.1 in SSE 1 mph 2 mph 60 % 0 in
03:15 65.3 °F 50.5 °F 30.1 in Calm   2 mph 59 % 0 in
03:25 65.7 °F 50.9 °F 30.1 in ENE 1 mph 3 mph 59 % 0 in
03:35 66.2 °F 51.1 °F 30.1 in NE 1 mph 3 mph 58 % 0 in
03:45 67.6 °F 52.3 °F 30.1 in NE 1 mph 2 mph 58 % 0 in
04:05 68.7 °F 52.3 °F 30.1 in NNE 2 mph 3 mph 56 % 0 in
04:15 69.3 °F 52.9 °F 30.1 in NE 3 mph 3 mph 56 % 0 in
04:25 69.6 °F 52.7 °F 30.1 in NNE 3 mph 3 mph 55 % 0 in
04:35 70.5 °F 52.5 °F 30.1 in NNE 3 mph 4 mph 53 % 0 in
04:45 71.8 °F 53.8 °F 30.1 in NE 2 mph 3 mph 53 % 0 in
04:55 71.8 °F 52.7 °F 30.1 in ENE 1 mph 4 mph 51 % 0 in
05:05 73.9 °F 54.1 °F 30.1 in ENE 1 mph 1 mph 50 % 0 in
05:15 74.7 °F 54.1 °F 30.1 in Calm   3 mph 49 % 0 in
05:25 74.1 °F 53.2 °F 30.1 in ENE 1 mph 4 mph 48 % 0 in
05:35 74.5 °F 52.9 °F 30.1 in ENE 3 mph 4 mph 47 % 0 in
05:45 75.9 °F 53.6 °F 30.1 in ESE 2 mph 3 mph 46 % 0 in
05:55 77.4 °F 54.3 °F 30.1 in SSE 1 mph 4 mph 45 % 0 in
06:05 77.9 °F 54.1 °F 30.1 in SW 1 mph 2 mph 44 % 0 in
11:08 78.8 °F 55 °F 30.1 in SW 4.3 mph 4.3 mph 44 % 0 in
11:13 77.5 °F 53.2 °F 30.1 in SE 3.5 mph 3.5 mph 43 % 0 in
11:18 78.6 °F 54.1 °F 30.1 in SSW 3.5 mph 3.5 mph 43 % 0 in
11:23 78.3 °F 54 °F 30.1 in West 4.9 mph 4.9 mph 43 % 0 in
11:28 77.7 °F 53.4 °F 30.1 in WSW 5.8 mph 5.8 mph 43 % 0 in
11:33 77.4 °F 53.1 °F 30.1 in WSW 5.8 mph 5.8 mph 43 % 0 in
11:38 77.5 °F 52.5 °F 30.1 in SW 5.8 mph 5.8 mph 42 % 0 in
11:43 78.3 °F 53.2 °F 30.1 in SSW 4.6 mph 4.6 mph 42 % 0 in
11:48 78.1 °F 52.5 °F 30.1 in SW 5.8 mph 5.8 mph 41 % 0 in
11:53 79.5 °F 53.8 °F 30.1 in WSW 1.2 mph   41 % 0 in
11:58 79 °F 53.2 °F 30.1 in SW 4.6 mph 4.6 mph 41 % 0 in
12:03 79.7 °F 53.2 °F 30.1 in ESE 5.8 mph 5.8 mph 40 % 0 in
12:04 79.7 °F 53.2 °F 30.1 in NE 4.3 mph 4.3 mph 40 % 0 in
12:09 78.3 °F 51.3 °F 30.1 in ESE 6.9 mph 6.9 mph 39 % 0 in
12:14 80.1 °F 53.6 °F 30.1 in WSW 4.6 mph 4.6 mph 40 % 0 in
12:19 81.5 °F 53.4 °F 30.1 in SW 4.6 mph 4.6 mph 38 % 0 in
12:24 80.6 °F 52.5 °F 30.1 in WNW 3.5 mph 3.5 mph 38 % 0 in
12:29 81 °F 53.1 °F 30.1 in SSW 2.3 mph 2.3 mph 38 % 0 in
12:34 81.1 °F 53.1 °F 30.1 in SE 4.6 mph 4.6 mph 38 % 0 in
12:39 81.5 °F 53.4 °F 30.1 in SSE 9.2 mph 9.2 mph 38 % 0 in
12:44 81.9 °F 53.1 °F 30.1 in ESE 2.3 mph 2.3 mph 37 % 0 in
12:49 81.3 °F 53.2 °F 30.1 in SSE 5.8 mph 5.8 mph 38 % 0 in
12:54 79.9 °F 52.7 °F 30.1 in ENE 3.6 mph 3.6 mph 39 % 0 in
12:59 81 °F 53.8 °F 30.1 in West 6.9 mph 6.9 mph 39 % 0 in
13:04 81.9 °F 54.5 °F 30.1 in SE 4.6 mph 4.6 mph 39 % 0 in
13:09 81.5 °F 54.1 °F 30.1 in ESE 6 mph 6 mph 39 % 0 in
13:14 80.4 °F 53.2 °F 30.1 in SSE 9.2 mph 9.2 mph 39 % 0 in
13:19 80.2 °F 53.1 °F 30.1 in NNE 9.2 mph 9.2 mph 39 % 0 in
13:24 79.7 °F 52.5 °F 30.1 in ENE 6.9 mph 6.9 mph 39 % 0 in
13:29 80.1 °F 52.9 °F 30.1 in ESE 10.4 mph 10.4 mph 39 % 0 in
13:34 80.2 °F 52.3 °F 30.1 in ENE 8.1 mph 8.1 mph 38 % 0 in
13:39 81.9 °F 53.8 °F 30.1 in South 3.5 mph 3.5 mph 38 % 0 in
13:44 83.3 °F 54.3 °F 30.1 in South 5.8 mph 5.8 mph 37 % 0 in
13:49 83.3 °F 53.6 °F 30 in SSE 7.6 mph 7.6 mph 36 % 0 in
13:54 84.2 °F 53.6 °F 30 in SW 5.8 mph 5.8 mph 35 % 0 in
13:59 84.6 °F 54 °F 30 in SW 8.1 mph 8.1 mph 35 % 0 in
14:04 84.6 °F 54 °F 30.1 in SSE 5.8 mph 5.8 mph 35 % 0 in
14:09 83.5 °F 52.9 °F 30.1 in SW 8.1 mph 8.1 mph 35 % 0 in
14:14 83.8 °F 51.6 °F 30.1 in South 3.8 mph 3.8 mph 33 % 0 in
14:19 84.2 °F 52 °F 30.1 in SSW 2.4 mph 2.4 mph 33 % 0 in
14:24 84.2 °F 52 °F 30.1 in SSE 6.9 mph 6.9 mph 33 % 0 in
14:29 83.7 °F 52.3 °F 30.1 in SW 10.4 mph 10.4 mph 34 % 0 in
14:34 84.4 °F 51.3 °F 30.1 in West 7.6 mph 7.6 mph 32 % 0 in
14:39 83.7 °F 50.7 °F 30.1 in South 3.5 mph 3.5 mph 32 % 0 in
14:44 84.2 °F 51.1 °F 30.1 in WSW 5.8 mph 5.8 mph 32 % 0 in
14:49 84.2 °F 50.4 °F 30.1 in SSW 8.1 mph 8.1 mph 31 % 0 in
14:54 83.8 °F 50 °F 30.1 in SW 8.1 mph 8.1 mph 31 % 0 in
14:59 84.4 °F 50.4 °F 30.1 in South 9.8 mph 9.8 mph 31 % 0 in
15:04 84.4 °F 50.4 °F 30.1 in SW 3.5 mph 3.5 mph 31 % 0 in
15:09 84.9 °F 50.9 °F 30.1 in SW 8.1 mph 8.1 mph 31 % 0 in
15:14 83.8 °F 50 °F 30.1 in SW 5.8 mph 5.8 mph 31 % 0 in
15:19 84 °F 50.2 °F 30.1 in SW 8.1 mph 8.1 mph 31 % 0 in
15:24 84.4 °F 49.6 °F 30.1 in SW 3.6 mph 3.6 mph 30 % 0 in
15:29 84.7 °F 49.8 °F 30.1 in WSW 6.9 mph 6.9 mph 30 % 0 in
15:34 84 °F 49.3 °F 30.1 in SSW 8.1 mph 8.1 mph 30 % 0 in
15:39 84.6 °F 49.6 °F 30.1 in WSW 4.9 mph 4.9 mph 30 % 0 in
15:44 84.4 °F 48.6 °F 30.1 in South 8.1 mph 8.1 mph 29 % 0 in
15:49 84.9 °F 50 °F 30.1 in SSW 8.1 mph 8.1 mph 30 % 0 in
15:54 83.7 °F 48.9 °F 30.1 in WSW 5.8 mph 5.8 mph 30 % 0 in
15:55 83.7 °F 48.9 °F 30.1 in SW 5.8 mph 5.8 mph 30 % 0 in
16:00 84.2 °F 48.6 °F 30.1 in SW 8.7 mph 8.7 mph 29 % 0 in
16:05 83.8 °F 49.1 °F 30.1 in SSW 8.1 mph 8.1 mph 30 % 0 in
16:10 84.4 °F 48.6 °F 30.1 in SW 11.4 mph 11.4 mph 29 % 0 in
16:15 83.7 °F 48.9 °F 30.1 in WSW 10.4 mph 10.4 mph 30 % 0 in
16:20 83.7 °F 48.9 °F 30 in SW 8.1 mph 8.1 mph 30 % 0 in
16:25 83.7 °F 48.9 °F 30 in South 5.8 mph 5.8 mph 30 % 0 in
16:30 84 °F 49.3 °F 30 in SW 5.8 mph 5.8 mph 30 % 0 in
16:35 83.1 °F 48.6 °F 30 in SSW 9.2 mph 9.2 mph 30 % 0 in
16:40 83.7 °F 48.9 °F 30 in WSW 8.1 mph 8.1 mph 30 % 0 in
16:45 83.1 °F 48.6 °F 30 in SSW 8.1 mph 8.1 mph 30 % 0 in
16:50 83.8 °F 49.1 °F 30 in West 6.9 mph 6.9 mph 30 % 0 in
16:55 83.1 °F 47.7 °F 30 in SW 10.4 mph 10.4 mph 29 % 0 in
17:00 82.6 °F 48 °F 30 in SSW 11.5 mph 11.5 mph 30 % 0 in
17:05 83.7 °F 48.9 °F 30 in SW 5.8 mph 5.8 mph 30 % 0 in
17:10 83.7 °F 48.9 °F 30 in West 6.9 mph 6.9 mph 30 % 0 in
17:15 83.8 °F 49.1 °F 30 in South 5.8 mph 5.8 mph 30 % 0 in
17:20 83.8 °F 49.1 °F 30 in SSW 6.9 mph 6.9 mph 30 % 0 in
17:25 83.7 °F 48.9 °F 30 in SW 9.2 mph 9.2 mph 30 % 0 in
17:30 83.3 °F 48.6 °F 30 in SW 6.9 mph 6.9 mph 30 % 0 in
17:35 83.5 °F 47.8 °F 30 in SSW 6.2 mph 6.2 mph 29 % 0 in
17:40 83.3 °F 48.6 °F 30 in WSW 5.8 mph 5.8 mph 30 % 0 in
17:45 83.5 °F 48.7 °F 30 in West 2.9 mph 2.9 mph 30 % 0 in
17:50 83.7 °F 48.9 °F 30 in South 7.8 mph 7.8 mph 30 % 0 in
17:55 83.5 °F 48.7 °F 30 in South 2.6 mph 2.6 mph 30 % 0 in
18:00 83.3 °F 47.7 °F 30 in SSW 5.8 mph 5.8 mph 29 % 0 in
18:05 83.7 °F 48.9 °F 30 in SW 6.9 mph 6.9 mph 30 % 0 in
18:10 83.1 °F 47.7 °F 30 in ESE 2.3 mph 2.3 mph 29 % 0 in
18:15 81.3 °F 46.9 °F 30 in SSW 4.6 mph 4.6 mph 30 % 0 in
18:20 82 °F 47.5 °F 30 in SSW 4.6 mph 4.6 mph 30 % 0 in
18:25 82.4 °F 47.8 °F 30 in SSW 4.6 mph 4.6 mph 30 % 0 in
18:30 82.2 °F 47.7 °F 30 in SSE 2.3 mph 2.3 mph 30 % 0 in
18:35 81.7 °F 47.1 °F 30 in SSW 4.6 mph 4.6 mph 30 % 0 in
18:40 82.2 °F 48.6 °F 30 in WSW 4.6 mph 4.6 mph 31 % 0 in
18:45 82 °F 48.4 °F 30 in SSE 4.6 mph 4.6 mph 31 % 0 in
18:50 81.7 °F 48 °F 30 in SSE 4.6 mph 4.6 mph 31 % 0 in
18:55 81.1 °F 47.7 °F 30 in WSW 8.1 mph 8.1 mph 31 % 0 in
19:00 80.8 °F 47.3 °F 30 in SW 5.8 mph 5.8 mph 31 % 0 in
19:05 80.8 °F 48.2 °F 30 in West 8.7 mph 8.7 mph 32 % 0 in
19:10 79.9 °F 47.5 °F 30 in SW 8.1 mph 8.1 mph 32 % 0 in
19:15 79 °F 46.6 °F 30 in SW 6.9 mph 6.9 mph 32 % 0 in
19:20 78.3 °F 46 °F 30 in South 6.9 mph 6.9 mph 32 % 0 in
19:25 77.9 °F 45.7 °F 30 in SSW 5.8 mph 5.8 mph 32 % 0 in
19:30 77.5 °F 46.2 °F 30 in SW 5.8 mph 5.8 mph 33 % 0 in
19:35 77 °F 45.7 °F 30 in West 6.9 mph 6.9 mph 33 % 0 in
19:40 76.8 °F 47.1 °F 30 in SW 6.2 mph 6.2 mph 35 % 0 in
19:45 76.5 °F 46.8 °F 30 in SW 4.6 mph 4.6 mph 35 % 0 in
19:50 76.1 °F 46.6 °F 30 in SW 8.1 mph 8.1 mph 35 % 0 in
19:55 75.7 °F 46.9 °F 30 in SW 5.8 mph 5.8 mph 36 % 0 in
20:00 75.4 °F 47.3 °F 30 in WSW 6.9 mph 6.9 mph 37 % 0 in
20:05 75 °F 46.9 °F 30 in SW 9.2 mph 9.2 mph 37 % 0 in
20:10 74.7 °F 47.5 °F 30 in WSW 4.6 mph 4.6 mph 38 % 0 in
20:15 74.5 °F 47.1 °F 30 in SW 6.9 mph 6.9 mph 38 % 0 in
20:20 74.3 °F 46.9 °F 30 in SW 4.6 mph 4.6 mph 38 % 0 in
20:25 73.9 °F 47.5 °F 30 in WSW 3.5 mph 3.5 mph 39 % 0 in
20:30 73.8 °F 47.8 °F 30 in SSW 4.6 mph 4.6 mph 40 % 0 in
20:35 73.8 °F 47.8 °F 30.1 in SW 2.3 mph 2.3 mph 40 % 0 in
20:40 73.4 °F 47.7 °F 30.1 in SSW 4 mph 4 mph 40 % 0 in
20:45 73.4 °F 48.4 °F 30.1 in WSW 3.5 mph 3.5 mph 41 % 0 in
20:50 73.2 °F 48 °F 30.1 in WSW 3.6 mph 3.6 mph 41 % 0 in
20:55 73.2 °F 48.7 °F 30.1 in SW 6.2 mph 6.2 mph 42 % 0 in
21:00 72.9 °F 48.4 °F 30.1 in WSW 3.8 mph 3.8 mph 42 % 0 in
21:05 72.7 °F 48.4 °F 30.1 in SW 4.9 mph 4.9 mph 42 % 0 in
21:10 72.7 °F 48.4 °F 30.1 in WSW 3.5 mph 3.5 mph 42 % 0 in
21:15 72.5 °F 48 °F 30.1 in SW 2.3 mph 2.3 mph 42 % 0 in
21:20 72.3 °F 47.8 °F 30.1 in SW 2.6 mph 2.6 mph 42 % 0 in
21:25 72 °F 47.7 °F 30.1 in SW 3.5 mph 3.5 mph 42 % 0 in
21:30 71.8 °F 47.5 °F 30.1 in SW 2.3 mph 2.3 mph 42 % 0 in
21:35 71.6 °F 47.8 °F 30.1 in SW 2.3 mph 2.3 mph 43 % 0 in
21:40 71.6 °F 47.8 °F 30.1 in SW 2.4 mph 2.4 mph 43 % 0 in
21:45 71.2 °F 47.7 °F 30.1 in WSW 2.2 mph   43 % 0 in
21:50 71.1 °F 47.5 °F 30.1 in Calm     43 % 0 in
21:55 70.9 °F 47.3 °F 30.1 in Calm     43 % 0 in
22:00 70.7 °F 47.1 °F 30.1 in Calm     43 % 0 in
22:05 70.5 °F 47.5 °F 30.1 in Calm     44 % 0 in
22:10 70.5 °F 47.5 °F 30.1 in WSW 2.3 mph 2.3 mph 44 % 0 in
22:11 70.5 °F 47.5 °F 30.1 in WSW 2.3 mph 2.3 mph 44 % 0 in
22:15 63.1 °F 52 °F 30.1 in SW 1 mph 2 mph 67 % 0 in
22:16 70.3 °F 47.5 °F 30.1 in NW 1.4 mph   44 % 0 in
22:21 70.2 °F 47.1 °F 30.1 in Calm     44 % 0 in
22:25 63.3 °F 52.5 °F 30.1 in Calm   2 mph 68 % 0 in
22:26 70 °F 47.7 °F 30.1 in NNE 1.4 mph 1.4 mph 45 % 0 in
22:31 69.8 °F 47.5 °F 30.1 in NE 2.3 mph 2.3 mph 45 % 0 in
22:35 63.7 °F 53.8 °F 30.1 in Calm   2 mph 70 % 0 in
22:36 69.8 °F 48 °F 30 in NE 1.2 mph   46 % 0 in
22:41 69.6 °F 49.1 °F 30 in NE 1.6 mph 1.6 mph 48 % 0 in
22:45 63.7 °F 53.8 °F 30.1 in Calm   2 mph 70 % 0 in
22:46 69.4 °F 50 °F 30 in East 1.2 mph 1.2 mph 50 % 0 in
22:51 69.3 °F 50.4 °F 30.1 in ENE 2.3 mph 2.3 mph 51 % 0 in
22:55 63.5 °F 53.1 °F 30.1 in Calm     69 % 0 in
22:56 69.1 °F 50.7 °F 30.1 in NNE 1.6 mph 1.6 mph 52 % 0 in
23:01 68.9 °F 51.1 °F 30.1 in NNE 1.2 mph   53 % 0 in
23:05 63.3 °F 53.1 °F 30.1 in Calm   1 mph 69 % 0 in
23:06 68.7 °F 51.4 °F 30.1 in Calm     54 % 0 in
23:11 68.7 °F 51.4 °F 30.1 in Calm     54 % 0 in
23:15 63.1 °F 53.2 °F 30.1 in NE 1 mph 1 mph 70 % 0 in
23:16 68.5 °F 51.3 °F 30.1 in SW 2.3 mph 2.3 mph 54 % 0 in
23:21 68.4 °F 51.1 °F 30.1 in Calm     54 % 0 in
23:25 63 °F 53.1 °F 30.1 in Calm     70 % 0 in
23:26 68.4 °F 51.6 °F 30.1 in Calm     55 % 0 in
23:31 68.4 °F 51.6 °F 30.1 in Calm     55 % 0 in
23:35 62.8 °F 52.9 °F 30 in Calm   1 mph 70 % 0 in
23:36 68.2 °F 51.4 °F 30.1 in Calm     55 % 0 in
23:41 68 °F 51.3 °F 30.1 in SW 0.9 mph   55 % 0 in
23:45 62.8 °F 52.9 °F 30 in Calm     70 % 0 in
23:46 67.8 °F 50.5 °F 30.1 in WSW 1.2 mph   54 % 0 in
23:51 67.8 °F 50.2 °F 30.1 in WNW 2.3 mph 2.3 mph 53 % 0 in
23:55 62.8 °F 52.9 °F 30 in NE 1 mph 2 mph 70 % 0 in
23:56 67.6 °F 49.8 °F 30.1 in Calm     53 % 0 in
Meteo Sesrovires
Elogis d' Weather Underground - 3.5 mb

Guio original per  Jim McMurry - jmcmurry@mwt.net Adaptat per a la plantilla per  Wim van der Kuil - Leuven-Template.eu

Trobareu la nostra informacio del temps tambe a:

Weather Underground

AWEKAS